sensor_id;sensor_type;location;lat;lon;timestamp;P1;durP1;ratioP1;P2;durP2;ratioP2
4833;SDS011;12895;51.064;7.028;2023-06-26T00:00:53;8.70;;;8.10;;
4833;SDS011;12895;51.064;7.028;2023-06-26T00:03:40;8.83;;;8.10;;
4833;SDS011;12895;51.064;7.028;2023-06-26T00:06:27;8.70;;;8.00;;
4833;SDS011;12895;51.064;7.028;2023-06-26T00:09:15;9.07;;;8.40;;
4833;SDS011;12895;51.064;7.028;2023-06-26T00:12:03;8.50;;;7.80;;
4833;SDS011;12895;51.064;7.028;2023-06-26T00:14:50;7.57;;;7.07;;
4833;SDS011;12895;51.064;7.028;2023-06-26T00:17:37;9.33;;;8.53;;
4833;SDS011;12895;51.064;7.028;2023-06-26T00:20:24;9.23;;;8.43;;
4833;SDS011;12895;51.064;7.028;2023-06-26T00:23:11;8.17;;;7.60;;
4833;SDS011;12895;51.064;7.028;2023-06-26T00:26:03;8.93;;;8.23;;
4833;SDS011;12895;51.064;7.028;2023-06-26T00:28:51;8.13;;;7.53;;
4833;SDS011;12895;51.064;7.028;2023-06-26T00:31:39;8.70;;;8.00;;
4833;SDS011;12895;51.064;7.028;2023-06-26T00:34:26;8.07;;;7.40;;
4833;SDS011;12895;51.064;7.028;2023-06-26T00:37:13;8.63;;;7.90;;
4833;SDS011;12895;51.064;7.028;2023-06-26T00:40:00;8.60;;;7.97;;
4833;SDS011;12895;51.064;7.028;2023-06-26T00:42:49;8.50;;;7.90;;
4833;SDS011;12895;51.064;7.028;2023-06-26T00:45:36;8.03;;;7.40;;
4833;SDS011;12895;51.064;7.028;2023-06-26T00:48:23;8.50;;;7.90;;
4833;SDS011;12895;51.064;7.028;2023-06-26T00:51:10;8.37;;;7.77;;
4833;SDS011;12895;51.064;7.028;2023-06-26T00:53:58;8.60;;;8.00;;
4833;SDS011;12895;51.064;7.028;2023-06-26T00:56:45;8.93;;;8.30;;
4833;SDS011;12895;51.064;7.028;2023-06-26T00:59:33;8.53;;;7.93;;
4833;SDS011;12895;51.064;7.028;2023-06-26T01:02:20;7.77;;;7.17;;
4833;SDS011;12895;51.064;7.028;2023-06-26T01:05:09;7.87;;;7.17;;
4833;SDS011;12895;51.064;7.028;2023-06-26T01:07:58;8.43;;;7.83;;
4833;SDS011;12895;51.064;7.028;2023-06-26T01:10:45;8.40;;;7.80;;
4833;SDS011;12895;51.064;7.028;2023-06-26T01:13:33;7.90;;;7.40;;
4833;SDS011;12895;51.064;7.028;2023-06-26T01:16:23;9.10;;;8.40;;
4833;SDS011;12895;51.064;7.028;2023-06-26T01:19:13;7.80;;;7.30;;
4833;SDS011;12895;51.064;7.028;2023-06-26T01:22:14;8.30;;;7.70;;
4833;SDS011;12895;51.064;7.028;2023-06-26T01:25:09;8.40;;;7.80;;
4833;SDS011;12895;51.064;7.028;2023-06-26T01:28:04;8.00;;;7.40;;
4833;SDS011;12895;51.064;7.028;2023-06-26T01:30:52;8.50;;;7.90;;
4833;SDS011;12895;51.064;7.028;2023-06-26T01:33:42;9.07;;;8.37;;
4833;SDS011;12895;51.064;7.028;2023-06-26T01:36:29;7.93;;;7.43;;
4833;SDS011;12895;51.064;7.028;2023-06-26T01:39:18;8.40;;;7.80;;
4833;SDS011;12895;51.064;7.028;2023-06-26T01:42:06;9.13;;;8.53;;
4833;SDS011;12895;51.064;7.028;2023-06-26T01:44:55;8.10;;;7.50;;
4833;SDS011;12895;51.064;7.028;2023-06-26T01:47:44;8.17;;;7.57;;
4833;SDS011;12895;51.064;7.028;2023-06-26T01:50:36;8.37;;;7.67;;
4833;SDS011;12895;51.064;7.028;2023-06-26T01:53:25;8.83;;;8.13;;
4833;SDS011;12895;51.064;7.028;2023-06-26T01:56:17;8.93;;;8.33;;
4833;SDS011;12895;51.064;7.028;2023-06-26T01:59:05;9.43;;;8.40;;
4833;SDS011;12895;51.064;7.028;2023-06-26T02:01:55;8.90;;;8.20;;
4833;SDS011;12895;51.064;7.028;2023-06-26T02:04:42;8.07;;;7.47;;
4833;SDS011;12895;51.064;7.028;2023-06-26T02:07:30;8.50;;;7.70;;
4833;SDS011;12895;51.064;7.028;2023-06-26T02:10:17;8.60;;;7.50;;
4833;SDS011;12895;51.064;7.028;2023-06-26T02:13:04;8.97;;;8.27;;
4833;SDS011;12895;51.064;7.028;2023-06-26T02:15:51;7.77;;;7.27;;
4833;SDS011;12895;51.064;7.028;2023-06-26T02:18:39;8.87;;;8.17;;
4833;SDS011;12895;51.064;7.028;2023-06-26T02:21:26;9.17;;;8.23;;
4833;SDS011;12895;51.064;7.028;2023-06-26T02:24:15;8.13;;;7.53;;
4833;SDS011;12895;51.064;7.028;2023-06-26T02:27:03;8.80;;;8.20;;
4833;SDS011;12895;51.064;7.028;2023-06-26T02:29:50;8.70;;;8.03;;
4833;SDS011;12895;51.064;7.028;2023-06-26T02:32:37;8.37;;;7.70;;
4833;SDS011;12895;51.064;7.028;2023-06-26T02:35:25;9.00;;;8.30;;
4833;SDS011;12895;51.064;7.028;2023-06-26T02:38:12;9.03;;;8.33;;
4833;SDS011;12895;51.064;7.028;2023-06-26T02:40:59;8.87;;;8.17;;
4833;SDS011;12895;51.064;7.028;2023-06-26T02:43:46;9.50;;;8.50;;
4833;SDS011;12895;51.064;7.028;2023-06-26T02:46:33;9.60;;;8.90;;
4833;SDS011;12895;51.064;7.028;2023-06-26T02:49:20;8.87;;;8.07;;
4833;SDS011;12895;51.064;7.028;2023-06-26T02:52:08;9.90;;;8.60;;
4833;SDS011;12895;51.064;7.028;2023-06-26T02:54:56;9.40;;;8.70;;
4833;SDS011;12895;51.064;7.028;2023-06-26T02:57:43;8.20;;;7.60;;
4833;SDS011;12895;51.064;7.028;2023-06-26T03:00:30;9.80;;;9.00;;
4833;SDS011;12895;51.064;7.028;2023-06-26T03:03:20;9.37;;;8.67;;
4833;SDS011;12895;51.064;7.028;2023-06-26T03:06:07;9.20;;;8.50;;
4833;SDS011;12895;51.064;7.028;2023-06-26T03:08:56;9.90;;;9.10;;
4833;SDS011;12895;51.064;7.028;2023-06-26T03:11:43;10.23;;;9.43;;
4833;SDS011;12895;51.064;7.028;2023-06-26T03:14:31;9.80;;;9.00;;
4833;SDS011;12895;51.064;7.028;2023-06-26T03:17:18;9.67;;;8.97;;
4833;SDS011;12895;51.064;7.028;2023-06-26T03:20:07;10.67;;;9.87;;
4833;SDS011;12895;51.064;7.028;2023-06-26T03:23:06;9.80;;;9.10;;
4833;SDS011;12895;51.064;7.028;2023-06-26T03:25:54;10.50;;;9.73;;
4833;SDS011;12895;51.064;7.028;2023-06-26T03:28:45;9.90;;;9.20;;
4833;SDS011;12895;51.064;7.028;2023-06-26T03:31:32;10.03;;;9.23;;
4833;SDS011;12895;51.064;7.028;2023-06-26T03:34:19;10.87;;;9.77;;
4833;SDS011;12895;51.064;7.028;2023-06-26T03:37:07;10.20;;;9.47;;
4833;SDS011;12895;51.064;7.028;2023-06-26T03:39:54;10.43;;;9.70;;
4833;SDS011;12895;51.064;7.028;2023-06-26T03:45:31;11.47;;;10.57;;
4833;SDS011;12895;51.064;7.028;2023-06-26T03:48:18;10.20;;;9.33;;
4833;SDS011;12895;51.064;7.028;2023-06-26T03:51:06;11.00;;;10.10;;
4833;SDS011;12895;51.064;7.028;2023-06-26T03:53:53;11.13;;;10.23;;
4833;SDS011;12895;51.064;7.028;2023-06-26T03:56:40;11.23;;;10.23;;
4833;SDS011;12895;51.064;7.028;2023-06-26T03:59:28;10.10;;;9.30;;
4833;SDS011;12895;51.064;7.028;2023-06-26T04:02:15;11.57;;;10.60;;
4833;SDS011;12895;51.064;7.028;2023-06-26T04:05:03;10.40;;;9.40;;
4833;SDS011;12895;51.064;7.028;2023-06-26T04:07:50;10.10;;;9.30;;
4833;SDS011;12895;51.064;7.028;2023-06-26T04:10:38;11.00;;;10.00;;
4833;SDS011;12895;51.064;7.028;2023-06-26T04:13:25;10.83;;;9.87;;
4833;SDS011;12895;51.064;7.028;2023-06-26T04:16:13;10.70;;;9.80;;
4833;SDS011;12895;51.064;7.028;2023-06-26T04:19:01;11.60;;;10.60;;
4833;SDS011;12895;51.064;7.028;2023-06-26T04:21:49;10.40;;;9.40;;
4833;SDS011;12895;51.064;7.028;2023-06-26T04:24:36;10.00;;;9.30;;
4833;SDS011;12895;51.064;7.028;2023-06-26T04:27:23;9.70;;;8.90;;
4833;SDS011;12895;51.064;7.028;2023-06-26T04:30:11;9.90;;;9.10;;
4833;SDS011;12895;51.064;7.028;2023-06-26T04:33:00;8.97;;;8.27;;
4833;SDS011;12895;51.064;7.028;2023-06-26T04:35:47;8.33;;;7.67;;
4833;SDS011;12895;51.064;7.028;2023-06-26T04:38:35;8.70;;;7.90;;
4833;SDS011;12895;51.064;7.028;2023-06-26T04:41:21;9.17;;;8.30;;
4833;SDS011;12895;51.064;7.028;2023-06-26T04:44:08;8.67;;;7.90;;
4833;SDS011;12895;51.064;7.028;2023-06-26T04:46:55;8.33;;;7.70;;
4833;SDS011;12895;51.064;7.028;2023-06-26T04:49:44;8.40;;;7.77;;
4833;SDS011;12895;51.064;7.028;2023-06-26T04:52:31;9.17;;;7.43;;
4833;SDS011;12895;51.064;7.028;2023-06-26T04:55:18;9.07;;;8.37;;
4833;SDS011;12895;51.064;7.028;2023-06-26T04:58:07;9.43;;;8.63;;
4833;SDS011;12895;51.064;7.028;2023-06-26T05:00:53;16.40;;;14.90;;
4833;SDS011;12895;51.064;7.028;2023-06-26T05:03:40;9.27;;;8.37;;
4833;SDS011;12895;51.064;7.028;2023-06-26T05:06:29;14.30;;;10.07;;
4833;SDS011;12895;51.064;7.028;2023-06-26T05:09:16;8.57;;;7.70;;
4833;SDS011;12895;51.064;7.028;2023-06-26T05:12:03;8.40;;;7.67;;
4833;SDS011;12895;51.064;7.028;2023-06-26T05:14:50;8.67;;;7.83;;
4833;SDS011;12895;51.064;7.028;2023-06-26T05:17:37;7.97;;;7.37;;
4833;SDS011;12895;51.064;7.028;2023-06-26T05:20:24;8.10;;;7.10;;
4833;SDS011;12895;51.064;7.028;2023-06-26T05:23:13;10.07;;;9.03;;
4833;SDS011;12895;51.064;7.028;2023-06-26T05:26:01;10.20;;;9.13;;
4833;SDS011;12895;51.064;7.028;2023-06-26T05:28:48;8.00;;;7.37;;
4833;SDS011;12895;51.064;7.028;2023-06-26T05:31:36;7.40;;;6.70;;
4833;SDS011;12895;51.064;7.028;2023-06-26T05:34:26;8.90;;;7.00;;
4833;SDS011;12895;51.064;7.028;2023-06-26T05:37:14;7.90;;;7.10;;
4833;SDS011;12895;51.064;7.028;2023-06-26T05:40:08;10.63;;;7.17;;
4833;SDS011;12895;51.064;7.028;2023-06-26T05:42:56;7.90;;;7.20;;
4833;SDS011;12895;51.064;7.028;2023-06-26T05:45:43;7.70;;;6.93;;
4833;SDS011;12895;51.064;7.028;2023-06-26T05:48:30;6.87;;;6.27;;
4833;SDS011;12895;51.064;7.028;2023-06-26T05:51:17;7.57;;;6.30;;
4833;SDS011;12895;51.064;7.028;2023-06-26T05:54:05;7.73;;;6.67;;
4833;SDS011;12895;51.064;7.028;2023-06-26T05:56:55;8.40;;;6.70;;
4833;SDS011;12895;51.064;7.028;2023-06-26T05:59:44;7.30;;;6.60;;
4833;SDS011;12895;51.064;7.028;2023-06-26T06:02:32;7.30;;;6.60;;
4833;SDS011;12895;51.064;7.028;2023-06-26T06:05:20;7.40;;;6.80;;
4833;SDS011;12895;51.064;7.028;2023-06-26T06:08:07;7.33;;;6.73;;
4833;SDS011;12895;51.064;7.028;2023-06-26T06:10:54;7.00;;;6.40;;
4833;SDS011;12895;51.064;7.028;2023-06-26T06:13:43;8.10;;;7.30;;
4833;SDS011;12895;51.064;7.028;2023-06-26T06:16:30;7.00;;;6.40;;
4833;SDS011;12895;51.064;7.028;2023-06-26T06:19:17;7.63;;;6.80;;
4833;SDS011;12895;51.064;7.028;2023-06-26T06:22:04;8.23;;;7.40;;
4833;SDS011;12895;51.064;7.028;2023-06-26T06:24:52;7.10;;;6.50;;
4833;SDS011;12895;51.064;7.028;2023-06-26T06:27:39;8.13;;;6.70;;
4833;SDS011;12895;51.064;7.028;2023-06-26T06:30:27;9.03;;;6.10;;
4833;SDS011;12895;51.064;7.028;2023-06-26T06:33:14;7.20;;;6.50;;
4833;SDS011;12895;51.064;7.028;2023-06-26T06:36:01;7.10;;;6.50;;
4833;SDS011;12895;51.064;7.028;2023-06-26T06:38:49;7.23;;;6.00;;
4833;SDS011;12895;51.064;7.028;2023-06-26T06:41:38;7.60;;;6.90;;
4833;SDS011;12895;51.064;7.028;2023-06-26T06:44:25;8.87;;;6.13;;
4833;SDS011;12895;51.064;7.028;2023-06-26T06:47:20;6.83;;;6.23;;
4833;SDS011;12895;51.064;7.028;2023-06-26T06:50:07;8.23;;;7.40;;
4833;SDS011;12895;51.064;7.028;2023-06-26T06:52:57;7.40;;;6.70;;
4833;SDS011;12895;51.064;7.028;2023-06-26T06:55:44;7.93;;;6.90;;
4833;SDS011;12895;51.064;7.028;2023-06-26T06:58:31;7.63;;;5.60;;
4833;SDS011;12895;51.064;7.028;2023-06-26T07:01:19;6.37;;;5.77;;
4833;SDS011;12895;51.064;7.028;2023-06-26T07:04:07;8.20;;;6.77;;
4833;SDS011;12895;51.064;7.028;2023-06-26T07:06:54;8.03;;;7.17;;
4833;SDS011;12895;51.064;7.028;2023-06-26T07:09:41;7.27;;;6.57;;
4833;SDS011;12895;51.064;7.028;2023-06-26T07:12:28;7.43;;;6.47;;
4833;SDS011;12895;51.064;7.028;2023-06-26T07:15:15;7.97;;;6.87;;
4833;SDS011;12895;51.064;7.028;2023-06-26T07:18:03;8.90;;;6.70;;
4833;SDS011;12895;51.064;7.028;2023-06-26T07:20:51;9.30;;;7.90;;
4833;SDS011;12895;51.064;7.028;2023-06-26T07:23:38;8.30;;;6.20;;
4833;SDS011;12895;51.064;7.028;2023-06-26T07:26:25;8.27;;;7.13;;
4833;SDS011;12895;51.064;7.028;2023-06-26T07:29:12;6.83;;;6.23;;
4833;SDS011;12895;51.064;7.028;2023-06-26T07:31:59;9.70;;;7.23;;
4833;SDS011;12895;51.064;7.028;2023-06-26T07:34:46;7.07;;;6.33;;
4833;SDS011;12895;51.064;7.028;2023-06-26T07:37:37;8.37;;;7.67;;
4833;SDS011;12895;51.064;7.028;2023-06-26T07:40:25;10.73;;;7.33;;
4833;SDS011;12895;51.064;7.028;2023-06-26T07:43:12;9.57;;;7.83;;
4833;SDS011;12895;51.064;7.028;2023-06-26T07:45:59;7.77;;;7.07;;
4833;SDS011;12895;51.064;7.028;2023-06-26T07:48:46;9.37;;;6.83;;
4833;SDS011;12895;51.064;7.028;2023-06-26T07:51:33;8.03;;;6.93;;
4833;SDS011;12895;51.064;7.028;2023-06-26T07:54:21;10.53;;;6.80;;
4833;SDS011;12895;51.064;7.028;2023-06-26T07:57:08;8.27;;;7.00;;
4833;SDS011;12895;51.064;7.028;2023-06-26T07:59:57;7.70;;;6.90;;
4833;SDS011;12895;51.064;7.028;2023-06-26T08:02:44;8.53;;;7.73;;
4833;SDS011;12895;51.064;7.028;2023-06-26T08:05:31;12.23;;;7.73;;
4833;SDS011;12895;51.064;7.028;2023-06-26T08:08:18;10.50;;;7.07;;
4833;SDS011;12895;51.064;7.028;2023-06-26T08:11:06;11.37;;;7.17;;
4833;SDS011;12895;51.064;7.028;2023-06-26T08:13:53;10.63;;;6.90;;
4833;SDS011;12895;51.064;7.028;2023-06-26T08:16:40;8.23;;;7.33;;
4833;SDS011;12895;51.064;7.028;2023-06-26T08:19:29;9.33;;;6.47;;
4833;SDS011;12895;51.064;7.028;2023-06-26T08:22:16;7.80;;;6.07;;
4833;SDS011;12895;51.064;7.028;2023-06-26T08:25:03;8.67;;;7.13;;
4833;SDS011;12895;51.064;7.028;2023-06-26T08:27:53;8.63;;;6.77;;
4833;SDS011;12895;51.064;7.028;2023-06-26T08:30:40;7.70;;;6.80;;
4833;SDS011;12895;51.064;7.028;2023-06-26T08:33:27;13.53;;;6.13;;
4833;SDS011;12895;51.064;7.028;2023-06-26T08:36:14;7.83;;;5.70;;
4833;SDS011;12895;51.064;7.028;2023-06-26T08:39:02;8.77;;;6.37;;
4833;SDS011;12895;51.064;7.028;2023-06-26T08:41:50;9.17;;;6.20;;
4833;SDS011;12895;51.064;7.028;2023-06-26T08:44:38;9.13;;;6.50;;
4833;SDS011;12895;51.064;7.028;2023-06-26T08:47:25;7.03;;;6.40;;
4833;SDS011;12895;51.064;7.028;2023-06-26T08:50:13;9.00;;;7.10;;
4833;SDS011;12895;51.064;7.028;2023-06-26T08:53:02;9.33;;;6.90;;
4833;SDS011;12895;51.064;7.028;2023-06-26T08:55:54;11.60;;;6.97;;
4833;SDS011;12895;51.064;7.028;2023-06-26T08:58:43;7.87;;;6.30;;
4833;SDS011;12895;51.064;7.028;2023-06-26T09:01:26;8.13;;;6.10;;
4833;SDS011;12895;51.064;7.028;2023-06-26T09:04:14;10.50;;;7.07;;
4833;SDS011;12895;51.064;7.028;2023-06-26T09:07:01;6.93;;;6.20;;
4833;SDS011;12895;51.064;7.028;2023-06-26T09:09:48;15.50;;;6.30;;
4833;SDS011;12895;51.064;7.028;2023-06-26T09:12:36;11.73;;;6.67;;
4833;SDS011;12895;51.064;7.028;2023-06-26T09:15:23;8.87;;;6.00;;
4833;SDS011;12895;51.064;7.028;2023-06-26T09:18:12;6.17;;;5.57;;
4833;SDS011;12895;51.064;7.028;2023-06-26T09:20:59;10.27;;;6.20;;
4833;SDS011;12895;51.064;7.028;2023-06-26T09:23:46;10.63;;;6.40;;
4833;SDS011;12895;51.064;7.028;2023-06-26T09:26:33;7.43;;;5.80;;
4833;SDS011;12895;51.064;7.028;2023-06-26T09:29:21;10.63;;;8.20;;
4833;SDS011;12895;51.064;7.028;2023-06-26T09:32:08;9.20;;;6.47;;
4833;SDS011;12895;51.064;7.028;2023-06-26T09:34:57;10.67;;;6.97;;
4833;SDS011;12895;51.064;7.028;2023-06-26T09:37:48;7.53;;;6.60;;
4833;SDS011;12895;51.064;7.028;2023-06-26T09:40:42;13.70;;;6.93;;
4833;SDS011;12895;51.064;7.028;2023-06-26T09:43:29;9.00;;;6.37;;
4833;SDS011;12895;51.064;7.028;2023-06-26T09:46:17;9.30;;;7.23;;
4833;SDS011;12895;51.064;7.028;2023-06-26T09:49:10;8.30;;;6.53;;
4833;SDS011;12895;51.064;7.028;2023-06-26T09:51:59;7.43;;;6.40;;
4833;SDS011;12895;51.064;7.028;2023-06-26T09:54:48;6.90;;;6.30;;
4833;SDS011;12895;51.064;7.028;2023-06-26T09:57:35;6.83;;;6.33;;
4833;SDS011;12895;51.064;7.028;2023-06-26T10:00:22;8.70;;;6.30;;
4833;SDS011;12895;51.064;7.028;2023-06-26T10:03:11;7.07;;;6.00;;
4833;SDS011;12895;51.064;7.028;2023-06-26T10:05:58;6.20;;;5.70;;
4833;SDS011;12895;51.064;7.028;2023-06-26T10:08:48;7.53;;;6.77;;
4833;SDS011;12895;51.064;7.028;2023-06-26T10:11:37;6.00;;;5.40;;
4833;SDS011;12895;51.064;7.028;2023-06-26T10:14:29;8.10;;;6.27;;
4833;SDS011;12895;51.064;7.028;2023-06-26T10:17:20;7.60;;;5.53;;
4833;SDS011;12895;51.064;7.028;2023-06-26T10:20:08;5.67;;;5.17;;
4833;SDS011;12895;51.064;7.028;2023-06-26T10:22:56;9.10;;;5.30;;
4833;SDS011;12895;51.064;7.028;2023-06-26T10:25:48;7.53;;;4.97;;
4833;SDS011;12895;51.064;7.028;2023-06-26T10:28:38;7.03;;;5.27;;
4833;SDS011;12895;51.064;7.028;2023-06-26T10:31:28;5.40;;;5.00;;
4833;SDS011;12895;51.064;7.028;2023-06-26T10:34:15;5.63;;;5.13;;
4833;SDS011;12895;51.064;7.028;2023-06-26T10:37:03;6.17;;;5.00;;
4833;SDS011;12895;51.064;7.028;2023-06-26T10:39:51;7.03;;;4.30;;
4833;SDS011;12895;51.064;7.028;2023-06-26T10:42:41;5.10;;;4.43;;
4833;SDS011;12895;51.064;7.028;2023-06-26T10:45:28;4.97;;;4.47;;
4833;SDS011;12895;51.064;7.028;2023-06-26T10:48:15;5.60;;;4.77;;
4833;SDS011;12895;51.064;7.028;2023-06-26T10:51:13;6.90;;;4.47;;
4833;SDS011;12895;51.064;7.028;2023-06-26T10:54:00;5.80;;;4.67;;
4833;SDS011;12895;51.064;7.028;2023-06-26T10:56:48;7.40;;;5.20;;
4833;SDS011;12895;51.064;7.028;2023-06-26T10:59:39;11.17;;;5.60;;
4833;SDS011;12895;51.064;7.028;2023-06-26T11:02:26;9.43;;;4.73;;
4833;SDS011;12895;51.064;7.028;2023-06-26T11:05:13;6.30;;;4.80;;
4833;SDS011;12895;51.064;7.028;2023-06-26T11:08:11;8.10;;;4.33;;
4833;SDS011;12895;51.064;7.028;2023-06-26T11:11:02;6.70;;;5.00;;
4833;SDS011;12895;51.064;7.028;2023-06-26T11:13:49;5.43;;;4.40;;
4833;SDS011;12895;51.064;7.028;2023-06-26T11:19:41;6.20;;;4.67;;
4833;SDS011;12895;51.064;7.028;2023-06-26T11:22:29;7.10;;;3.77;;
4833;SDS011;12895;51.064;7.028;2023-06-26T11:25:19;5.67;;;3.20;;
4833;SDS011;12895;51.064;7.028;2023-06-26T11:28:09;4.13;;;3.70;;
4833;SDS011;12895;51.064;7.028;2023-06-26T11:30:56;3.80;;;3.00;;
4833;SDS011;12895;51.064;7.028;2023-06-26T11:33:46;6.90;;;3.50;;
4833;SDS011;12895;51.064;7.028;2023-06-26T11:36:33;3.10;;;2.90;;
4833;SDS011;12895;51.064;7.028;2023-06-26T11:39:23;8.43;;;3.50;;
4833;SDS011;12895;51.064;7.028;2023-06-26T11:42:10;4.33;;;2.97;;
4833;SDS011;12895;51.064;7.028;2023-06-26T11:44:57;3.50;;;3.20;;
4833;SDS011;12895;51.064;7.028;2023-06-26T11:47:47;4.07;;;2.97;;
4833;SDS011;12895;51.064;7.028;2023-06-26T11:50:38;5.10;;;3.43;;
4833;SDS011;12895;51.064;7.028;2023-06-26T11:53:25;6.20;;;3.00;;
4833;SDS011;12895;51.064;7.028;2023-06-26T11:56:12;4.30;;;2.67;;
4833;SDS011;12895;51.064;7.028;2023-06-26T11:59:01;6.00;;;3.00;;
4833;SDS011;12895;51.064;7.028;2023-06-26T12:01:49;3.80;;;2.80;;
4833;SDS011;12895;51.064;7.028;2023-06-26T12:04:37;4.60;;;2.70;;
4833;SDS011;12895;51.064;7.028;2023-06-26T12:07:28;6.30;;;2.70;;
4833;SDS011;12895;51.064;7.028;2023-06-26T12:10:16;2.97;;;2.47;;
4833;SDS011;12895;51.064;7.028;2023-06-26T12:13:05;3.60;;;2.40;;
4833;SDS011;12895;51.064;7.028;2023-06-26T12:15:52;4.00;;;2.67;;
4833;SDS011;12895;51.064;7.028;2023-06-26T12:18:39;4.67;;;2.63;;
4833;SDS011;12895;51.064;7.028;2023-06-26T12:21:46;3.90;;;2.50;;
4833;SDS011;12895;51.064;7.028;2023-06-26T12:24:38;2.70;;;2.50;;
4833;SDS011;12895;51.064;7.028;2023-06-26T12:27:27;2.37;;;2.10;;
4833;SDS011;12895;51.064;7.028;2023-06-26T12:30:15;8.83;;;2.60;;
4833;SDS011;12895;51.064;7.028;2023-06-26T12:33:02;4.27;;;2.50;;
4833;SDS011;12895;51.064;7.028;2023-06-26T12:35:49;4.10;;;2.50;;
4833;SDS011;12895;51.064;7.028;2023-06-26T12:38:36;5.33;;;2.33;;
4833;SDS011;12895;51.064;7.028;2023-06-26T12:41:26;5.40;;;3.10;;
4833;SDS011;12895;51.064;7.028;2023-06-26T12:44:20;5.00;;;2.00;;
4833;SDS011;12895;51.064;7.028;2023-06-26T12:47:12;2.63;;;2.20;;
4833;SDS011;12895;51.064;7.028;2023-06-26T12:50:04;3.60;;;2.30;;
4833;SDS011;12895;51.064;7.028;2023-06-26T12:52:55;5.50;;;2.40;;
4833;SDS011;12895;51.064;7.028;2023-06-26T12:55:42;2.90;;;2.60;;
4833;SDS011;12895;51.064;7.028;2023-06-26T12:58:31;8.43;;;2.80;;
4833;SDS011;12895;51.064;7.028;2023-06-26T13:01:18;3.67;;;2.53;;
4833;SDS011;12895;51.064;7.028;2023-06-26T13:04:06;5.20;;;2.50;;
4833;SDS011;12895;51.064;7.028;2023-06-26T13:06:53;3.17;;;2.10;;
4833;SDS011;12895;51.064;7.028;2023-06-26T13:09:41;2.23;;;1.90;;
4833;SDS011;12895;51.064;7.028;2023-06-26T13:12:31;2.00;;;1.80;;
4833;SDS011;12895;51.064;7.028;2023-06-26T13:15:19;6.73;;;1.87;;
4833;SDS011;12895;51.064;7.028;2023-06-26T13:18:06;2.43;;;1.70;;
4833;SDS011;12895;51.064;7.028;2023-06-26T13:20:54;4.37;;;2.10;;
4833;SDS011;12895;51.064;7.028;2023-06-26T13:23:41;5.47;;;2.10;;
4833;SDS011;12895;51.064;7.028;2023-06-26T13:26:28;5.20;;;1.80;;
4833;SDS011;12895;51.064;7.028;2023-06-26T13:29:15;4.67;;;2.07;;
4833;SDS011;12895;51.064;7.028;2023-06-26T13:32:04;2.27;;;1.73;;
4833;SDS011;12895;51.064;7.028;2023-06-26T13:34:52;6.30;;;1.90;;
4833;SDS011;12895;51.064;7.028;2023-06-26T13:37:40;1.73;;;1.63;;
4833;SDS011;12895;51.064;7.028;2023-06-26T13:40:27;4.87;;;2.40;;
4833;SDS011;12895;51.064;7.028;2023-06-26T13:43:14;2.50;;;1.83;;
4833;SDS011;12895;51.064;7.028;2023-06-26T13:46:01;3.70;;;2.13;;
4833;SDS011;12895;51.064;7.028;2023-06-26T13:48:50;3.60;;;1.70;;
4833;SDS011;12895;51.064;7.028;2023-06-26T13:51:36;2.93;;;2.20;;
4833;SDS011;12895;51.064;7.028;2023-06-26T13:54:26;3.97;;;1.80;;
4833;SDS011;12895;51.064;7.028;2023-06-26T13:57:13;2.53;;;2.00;;
4833;SDS011;12895;51.064;7.028;2023-06-26T14:00:00;1.60;;;1.50;;
4833;SDS011;12895;51.064;7.028;2023-06-26T14:02:58;3.90;;;1.60;;
4833;SDS011;12895;51.064;7.028;2023-06-26T14:05:47;3.80;;;1.90;;
4833;SDS011;12895;51.064;7.028;2023-06-26T14:08:34;2.23;;;1.50;;
4833;SDS011;12895;51.064;7.028;2023-06-26T14:11:21;3.10;;;1.60;;
4833;SDS011;12895;51.064;7.028;2023-06-26T14:14:11;1.87;;;1.70;;
4833;SDS011;12895;51.064;7.028;2023-06-26T14:17:01;2.77;;;1.90;;
4833;SDS011;12895;51.064;7.028;2023-06-26T14:19:48;4.03;;;1.90;;
4833;SDS011;12895;51.064;7.028;2023-06-26T14:22:37;2.33;;;1.77;;
4833;SDS011;12895;51.064;7.028;2023-06-26T14:25:24;4.10;;;1.43;;
4833;SDS011;12895;51.064;7.028;2023-06-26T14:28:11;2.27;;;1.67;;
4833;SDS011;12895;51.064;7.028;2023-06-26T14:30:58;3.77;;;2.60;;
4833;SDS011;12895;51.064;7.028;2023-06-26T14:33:47;2.90;;;2.37;;
4833;SDS011;12895;51.064;7.028;2023-06-26T14:36:34;2.30;;;1.83;;
4833;SDS011;12895;51.064;7.028;2023-06-26T14:39:24;2.30;;;1.63;;
4833;SDS011;12895;51.064;7.028;2023-06-26T14:42:11;4.00;;;1.93;;
4833;SDS011;12895;51.064;7.028;2023-06-26T14:44:59;2.70;;;1.60;;
4833;SDS011;12895;51.064;7.028;2023-06-26T14:48:06;2.80;;;2.23;;
4833;SDS011;12895;51.064;7.028;2023-06-26T14:50:54;1.80;;;1.53;;
4833;SDS011;12895;51.064;7.028;2023-06-26T14:53:42;2.07;;;1.80;;
4833;SDS011;12895;51.064;7.028;2023-06-26T14:56:33;2.40;;;1.80;;
4833;SDS011;12895;51.064;7.028;2023-06-26T14:59:23;3.20;;;1.90;;
4833;SDS011;12895;51.064;7.028;2023-06-26T15:11:18;2.97;;;1.87;;
4833;SDS011;12895;51.064;7.028;2023-06-26T15:28:48;2.10;;;1.77;;
4833;SDS011;12895;51.064;7.028;2023-06-26T15:31:36;2.17;;;1.77;;
4833;SDS011;12895;51.064;7.028;2023-06-26T15:34:23;3.10;;;2.20;;
4833;SDS011;12895;51.064;7.028;2023-06-26T15:37:12;2.20;;;2.00;;
4833;SDS011;12895;51.064;7.028;2023-06-26T15:39:59;3.80;;;1.77;;
4833;SDS011;12895;51.064;7.028;2023-06-26T15:42:46;2.10;;;1.90;;
4833;SDS011;12895;51.064;7.028;2023-06-26T15:45:34;2.33;;;1.80;;
4833;SDS011;12895;51.064;7.028;2023-06-26T15:48:21;5.87;;;2.00;;
4833;SDS011;12895;51.064;7.028;2023-06-26T15:51:12;1.97;;;1.60;;
4833;SDS011;12895;51.064;7.028;2023-06-26T15:54:02;4.47;;;2.43;;
4833;SDS011;12895;51.064;7.028;2023-06-26T15:56:49;5.60;;;1.90;;
4833;SDS011;12895;51.064;7.028;2023-06-26T15:59:36;2.20;;;1.93;;
4833;SDS011;12895;51.064;7.028;2023-06-26T16:02:23;3.00;;;1.70;;
4833;SDS011;12895;51.064;7.028;2023-06-26T16:05:10;4.47;;;2.00;;
4833;SDS011;12895;51.064;7.028;2023-06-26T16:07:57;3.43;;;1.50;;
4833;SDS011;12895;51.064;7.028;2023-06-26T16:10:45;4.90;;;2.10;;
4833;SDS011;12895;51.064;7.028;2023-06-26T16:13:32;4.97;;;1.77;;
4833;SDS011;12895;51.064;7.028;2023-06-26T16:16:19;4.50;;;2.10;;
4833;SDS011;12895;51.064;7.028;2023-06-26T16:19:06;2.43;;;1.60;;
4833;SDS011;12895;51.064;7.028;2023-06-26T16:21:53;1.90;;;1.60;;
4833;SDS011;12895;51.064;7.028;2023-06-26T16:24:40;2.00;;;1.70;;
4833;SDS011;12895;51.064;7.028;2023-06-26T16:27:28;2.30;;;1.60;;
4833;SDS011;12895;51.064;7.028;2023-06-26T16:30:15;1.80;;;1.70;;
4833;SDS011;12895;51.064;7.028;2023-06-26T16:33:03;2.17;;;1.97;;
4833;SDS011;12895;51.064;7.028;2023-06-26T16:35:50;2.43;;;2.03;;
4833;SDS011;12895;51.064;7.028;2023-06-26T16:38:37;2.77;;;1.73;;
4833;SDS011;12895;51.064;7.028;2023-06-26T16:41:26;2.13;;;1.80;;
4833;SDS011;12895;51.064;7.028;2023-06-26T16:44:15;3.30;;;2.07;;
4833;SDS011;12895;51.064;7.028;2023-06-26T16:47:02;2.90;;;1.80;;
4833;SDS011;12895;51.064;7.028;2023-06-26T16:49:49;5.47;;;3.40;;
4833;SDS011;12895;51.064;7.028;2023-06-26T16:52:36;2.83;;;2.63;;
4833;SDS011;12895;51.064;7.028;2023-06-26T16:55:23;2.13;;;1.53;;
4833;SDS011;12895;51.064;7.028;2023-06-26T16:58:10;3.10;;;1.90;;
4833;SDS011;12895;51.064;7.028;2023-06-26T17:01:01;2.20;;;1.60;;
4833;SDS011;12895;51.064;7.028;2023-06-26T17:03:48;2.50;;;1.50;;
4833;SDS011;12895;51.064;7.028;2023-06-26T17:06:37;1.90;;;1.70;;
4833;SDS011;12895;51.064;7.028;2023-06-26T17:09:24;1.80;;;1.50;;
4833;SDS011;12895;51.064;7.028;2023-06-26T17:12:11;2.60;;;1.80;;
4833;SDS011;12895;51.064;7.028;2023-06-26T17:14:58;2.90;;;1.60;;
4833;SDS011;12895;51.064;7.028;2023-06-26T17:17:47;2.33;;;1.80;;
4833;SDS011;12895;51.064;7.028;2023-06-26T17:20:34;3.43;;;2.13;;
4833;SDS011;12895;51.064;7.028;2023-06-26T17:23:22;2.10;;;1.90;;
4833;SDS011;12895;51.064;7.028;2023-06-26T17:26:09;1.77;;;1.50;;
4833;SDS011;12895;51.064;7.028;2023-06-26T17:28:56;4.73;;;1.70;;
4833;SDS011;12895;51.064;7.028;2023-06-26T17:31:43;1.60;;;1.50;;
4833;SDS011;12895;51.064;7.028;2023-06-26T17:34:31;2.10;;;1.60;;
4833;SDS011;12895;51.064;7.028;2023-06-26T17:37:19;3.00;;;1.57;;